Main page
METAR-TAF:

METAR-TAF

Airports :

Columbus Municipal Airport

Columbus, Indiana, United States

latitude: 39-16N, longitude: 085-54W, elevation: 656 ft

Current weather observation

The report was made 7 hours and 50 minutes ago, at 02:45 UTC
Wind 6 mph from the South/Southwest
Temperature 32°F
Humidity 43%
Pressure 30.26 in. Hg
Visibility: 10 miles
Clear sky

METAR: KBAK 230245Z 20005KT 10SM SKC 00/M11 A3026 RMK LAST

Time: 05:35 (10:35 UTC)


TAF: missing

Weather observations and forecasts of more than 4000 airports (METAR and TAF reports).

The available stations are represented by yellow and red dots on the map.

Hover mouse over dot to see the name of the station.

Then click to see weather observations and forecasts.

To change the map : click on the green buttons with a black cross to zoom in, on the green button with a dash to zoom out, or on the green arrows for adjacent maps.


METAR-TAF: